Cascavel, Brazil
Current Conditions -  °F | °C
As of 1:00 AM on Friday 19 Dec 2014 (Local Time) from SBCA Reporting Station
Clear Clear  
Wind Chill: 72°   Ceiling: Unl
Heat Index: 72°   Visibility: 6mi
Dew Point: 61°   Wind: 7mph
Humidity: 69%   Direction: 170°S
Pressure: 29.91"   Gusts: NA
Location:  24.96°S, 53.46°W
Report Text: SBCA 190300Z 17006KT CAVOK 22/16 Q1013
Loading
Personal Weather Stations






























Interactive Weather Map New forecast layout! Learn more

10-Day Weather Forecast

Advertisements
Track Severe Weather on mobile